createdAt,value
2018-08-04T00:01:58.906Z,3.6
2018-08-04T00:07:01.133Z,1.5
2018-08-04T00:12:03.306Z,2.2
2018-08-04T00:17:05.714Z,2.4
2018-08-04T00:22:08.007Z,2.8
2018-08-04T00:27:10.158Z,2.7
2018-08-04T00:32:12.574Z,3
2018-08-04T00:37:14.948Z,3.4
2018-08-04T00:42:17.153Z,3.2
2018-08-04T00:47:19.509Z,4.1
2018-08-04T00:52:21.608Z,2.6
2018-08-04T00:57:23.897Z,2.6
2018-08-04T01:02:26.244Z,4.7
2018-08-04T01:07:28.531Z,2.2
2018-08-04T01:12:30.979Z,2.7
2018-08-04T01:17:33.382Z,4.2
2018-08-04T01:22:35.549Z,2.1
2018-08-04T01:27:37.774Z,3.1
2018-08-04T01:32:40.084Z,2.1
2018-08-04T01:37:42.356Z,2.1
2018-08-04T01:42:44.693Z,2.6
2018-08-04T01:47:47.179Z,3.4
2018-08-04T01:52:49.165Z,3
2018-08-04T01:57:51.513Z,3
2018-08-04T02:08:05.131Z,2.9
2018-08-04T02:13:07.292Z,2.6
2018-08-04T02:18:09.594Z,1.8
2018-08-04T02:23:11.883Z,1.9
2018-08-04T02:28:14.123Z,3.9
2018-08-04T02:33:16.532Z,3
2018-08-04T02:38:18.778Z,1.4
2018-08-04T02:43:21.027Z,2.2
2018-08-04T02:48:23.482Z,2
2018-08-04T02:53:25.656Z,2
2018-08-04T02:58:27.942Z,2.2
2018-08-04T03:03:30.154Z,3.3
2018-08-04T03:08:32.608Z,2.4
2018-08-04T03:13:34.813Z,3.9
2018-08-04T03:18:37.183Z,2.7
2018-08-04T03:23:39.346Z,3.6
2018-08-04T03:28:41.731Z,1.2
2018-08-04T03:33:44.031Z,1.7
2018-08-04T03:38:46.360Z,2.9
2018-08-04T03:43:48.690Z,1.5
2018-08-04T03:48:50.843Z,3.3
2018-08-04T03:53:53.149Z,2.3
2018-08-04T03:58:55.486Z,3.1
2018-08-04T04:03:57.676Z,3.2
2018-08-04T04:09:00.099Z,2
2018-08-04T04:14:02.252Z,1
2018-08-04T04:19:04.668Z,2.7
2018-08-04T04:24:06.884Z,2.4
2018-08-04T04:29:09.404Z,2.4
2018-08-04T04:34:11.637Z,1.6
2018-08-04T04:39:13.791Z,2.1
2018-08-04T04:44:16.074Z,3.1
2018-08-04T04:49:18.366Z,2.7
2018-08-04T04:54:20.940Z,2
2018-08-04T04:59:22.982Z,2.6
2018-08-04T05:04:25.273Z,2.7
2018-08-04T05:09:27.532Z,3.7
2018-08-04T05:14:29.825Z,0.9
2018-08-04T05:19:32.211Z,2.3
2018-08-04T05:24:34.581Z,2.8
2018-08-04T05:29:36.692Z,2.4
2018-08-04T05:34:39.080Z,3.4
2018-08-04T05:39:41.366Z,2.3
2018-08-04T05:49:45.941Z,3.6
2018-08-04T05:54:48.144Z,3
2018-08-04T05:59:50.642Z,1.7
2018-08-04T06:04:52.745Z,2.9
2018-08-04T06:09:55.101Z,5.7
2018-08-04T06:14:57.396Z,5.2
2018-08-04T06:19:59.712Z,4.4
2018-08-04T06:25:02.017Z,5
2018-08-04T06:30:04.244Z,3.4
2018-08-04T06:35:06.722Z,2.7
2018-08-04T06:40:08.933Z,3.7
2018-08-04T06:45:11.185Z,4
2018-08-04T06:50:13.521Z,3.2
2018-08-04T06:55:15.785Z,3
2018-08-04T07:00:18.173Z,3.9
2018-08-04T07:05:20.422Z,3.7
2018-08-04T07:10:22.716Z,3.4
2018-08-04T07:15:24.893Z,2
2018-08-04T07:20:27.233Z,1.4
2018-08-04T07:25:29.514Z,1.5
2018-08-04T07:30:32.086Z,1.6
2018-08-04T07:35:34.173Z,1.9
2018-08-04T07:40:36.337Z,3.6
2018-08-04T07:45:38.790Z,2
2018-08-04T07:50:40.989Z,1.6
2018-08-04T07:55:43.274Z,2.8
2018-08-04T08:00:45.593Z,1.5
2018-08-04T08:05:47.834Z,1.6
2018-08-04T08:10:50.248Z,3.4
2018-08-04T08:15:52.489Z,2.2
2018-08-04T08:20:54.765Z,2.1
2018-08-04T08:25:57.071Z,2.9
2018-08-04T08:30:59.313Z,1.5
2018-08-04T08:36:01.793Z,1.7
2018-08-04T08:41:03.877Z,2.3
2018-08-04T08:51:08.599Z,3.4
2018-08-04T08:56:10.974Z,1.2
2018-08-04T09:01:13.476Z,1.7
2018-08-04T09:06:15.358Z,1.3
2018-08-04T09:11:17.694Z,1.5
2018-08-04T09:16:19.956Z,1.7
2018-08-04T09:21:22.365Z,1.2
2018-08-04T09:26:24.593Z,1.7
2018-08-04T09:31:26.892Z,2.1
2018-08-04T09:36:29.128Z,1.5
2018-08-04T09:41:31.507Z,2
2018-08-04T09:46:33.745Z,2.1
2018-08-04T09:51:35.982Z,1.1
2018-08-04T09:56:38.454Z,3.2
2018-08-04T10:01:40.654Z,1.2
2018-08-04T10:06:42.894Z,2.3
2018-08-04T10:11:45.209Z,1.4
2018-08-04T10:16:47.560Z,1.1
2018-08-04T10:21:49.777Z,1
2018-08-04T10:26:52.066Z,0.8
2018-08-04T10:31:54.439Z,1.7
2018-08-04T10:36:56.716Z,0.7
2018-08-04T10:41:59.079Z,2
2018-08-04T10:47:01.298Z,1.5
2018-08-04T10:52:03.630Z,1.8
2018-08-04T10:57:06.046Z,0.9
2018-08-04T11:02:08.192Z,1
2018-08-04T11:07:10.512Z,1.5
2018-08-04T11:12:12.707Z,1.2
2018-08-04T11:17:15.099Z,1.2
2018-08-04T11:22:17.355Z,1.6
2018-08-04T11:27:19.653Z,0.9
2018-08-04T11:32:21.953Z,1.3
2018-08-04T11:37:24.250Z,1.1
2018-08-04T11:42:26.631Z,1.6
2018-08-04T11:47:28.818Z,1.4
2018-08-04T11:52:31.213Z,0.9
2018-08-04T11:57:33.508Z,0.8
2018-08-04T12:02:35.766Z,1.3
2018-08-04T12:07:38.012Z,0.7
2018-08-04T12:12:40.340Z,0.8
2018-08-04T12:17:42.587Z,0.6
2018-08-04T12:22:44.856Z,0.7
2018-08-04T12:27:47.160Z,0.5
2018-08-04T12:32:49.477Z,1
2018-08-04T12:37:51.865Z,1.6
2018-08-04T12:42:54.004Z,1.1
2018-08-04T12:47:56.357Z,1.2
2018-08-04T12:52:58.724Z,0.8
2018-08-04T12:58:00.946Z,1.2
2018-08-04T13:03:03.254Z,0.8
2018-08-04T13:08:05.558Z,1.4
2018-08-04T13:13:07.851Z,0.8
2018-08-04T13:18:10.182Z,2.5
2018-08-04T13:23:12.406Z,1
2018-08-04T13:28:14.767Z,1.2
2018-08-04T13:33:17.021Z,1.5
2018-08-04T13:38:19.234Z,1.1
2018-08-04T13:43:21.612Z,1.8
2018-08-04T13:48:24.012Z,2.5
2018-08-04T13:53:26.159Z,2.7
2018-08-04T13:58:28.440Z,1.7
2018-08-04T14:03:30.838Z,2.1
2018-08-04T14:08:33.049Z,2.3
2018-08-04T14:13:35.356Z,1.4
2018-08-04T14:18:37.750Z,1.5
2018-08-04T14:23:40.020Z,4.2
2018-08-04T14:28:42.295Z,3.4
2018-08-04T14:33:44.516Z,3.4
2018-08-04T14:38:46.917Z,2.8
2018-08-04T14:43:49.258Z,1.7
2018-08-04T14:48:51.441Z,1
2018-08-04T14:53:53.711Z,2.6
2018-08-04T14:58:56.571Z,2
2018-08-04T15:03:58.220Z,1.7
2018-08-04T15:09:00.693Z,1.1
2018-08-04T15:14:02.997Z,0.5
2018-08-04T15:19:05.292Z,1.1
2018-08-04T15:24:07.548Z,1.3
2018-08-04T15:29:09.888Z,1.4
2018-08-04T15:34:12.148Z,0.9
2018-08-04T15:39:14.523Z,1.7
2018-08-04T15:44:16.793Z,1.9
2018-08-04T15:49:18.961Z,1.2
2018-08-04T15:54:21.278Z,1
2018-08-04T15:59:23.569Z,1.6
2018-08-04T16:04:25.946Z,1.2
2018-08-04T16:09:28.164Z,0.9
2018-08-04T16:14:30.669Z,1.6
2018-08-04T16:19:32.725Z,0.9
2018-08-04T16:24:35.070Z,3.4
2018-08-04T16:29:37.266Z,2
2018-08-04T16:34:39.654Z,1.6
2018-08-04T16:39:42.032Z,2.5
2018-08-04T16:44:44.367Z,3.7
2018-08-04T16:49:46.536Z,2.2
2018-08-04T16:54:48.754Z,2.1
2018-08-04T16:59:51.160Z,3.2
2018-08-04T17:04:53.383Z,3.9
2018-08-04T17:09:55.750Z,4
2018-08-04T17:14:57.995Z,2.7
2018-08-04T17:20:00.213Z,1.7
2018-08-04T17:25:02.568Z,2.8
2018-08-04T17:30:04.901Z,1.6
2018-08-04T17:35:07.160Z,2.1
2018-08-04T17:40:09.592Z,2.4
2018-08-04T17:45:11.774Z,3
2018-08-04T17:50:14.083Z,2.4
2018-08-04T17:55:16.409Z,2.1
2018-08-04T18:00:18.533Z,3.5
2018-08-04T18:05:20.970Z,1.6
2018-08-04T18:10:23.304Z,2.8
2018-08-04T18:15:25.557Z,1.7
2018-08-04T18:20:28.042Z,1.8
2018-08-04T18:25:30.212Z,2.6
2018-08-04T18:30:32.372Z,4.3
2018-08-04T18:35:34.657Z,2.7
2018-08-04T18:45:50.240Z,1.6
2018-08-04T18:50:52.592Z,2.3
2018-08-04T18:55:54.871Z,2.4
2018-08-04T19:00:57.167Z,2.3
2018-08-04T19:05:59.422Z,1.4
2018-08-04T19:11:01.777Z,1.9
2018-08-04T19:16:04.076Z,2.1
2018-08-04T19:21:06.594Z,2.2
2018-08-04T19:26:08.655Z,1.8
2018-08-04T19:31:11.031Z,2.4
2018-08-04T19:36:13.204Z,2
2018-08-04T19:41:15.480Z,1.4
2018-08-04T19:46:17.737Z,2.3
2018-08-04T19:51:20.165Z,2.9
2018-08-04T19:56:22.447Z,1.8
2018-08-04T20:01:24.612Z,3.5
2018-08-04T20:06:27.046Z,1.9
2018-08-04T20:11:29.254Z,1.9
2018-08-04T20:16:31.502Z,1
2018-08-04T20:21:33.745Z,1.2
2018-08-04T20:31:39.443Z,1.9
2018-08-04T20:36:41.489Z,0.8
2018-08-04T20:41:43.791Z,1.7
2018-08-04T20:46:46.185Z,5.5
2018-08-04T20:51:48.436Z,2.1
2018-08-04T20:56:50.704Z,2.3
2018-08-04T21:01:53.007Z,1.2
2018-08-04T21:06:55.329Z,2.7
2018-08-04T21:11:57.503Z,2.3
2018-08-04T21:17:00.049Z,1.9
2018-08-04T21:22:02.195Z,2.4
2018-08-04T21:27:04.467Z,1.4
2018-08-04T21:32:06.812Z,1.6
2018-08-04T21:37:09.306Z,2.4
2018-08-04T21:42:11.370Z,1
2018-08-04T21:47:13.664Z,2.1
2018-08-04T21:52:16.235Z,1.4
2018-08-04T21:57:18.351Z,2.9
2018-08-04T22:02:20.637Z,2.3
2018-08-04T22:07:22.849Z,2.8
2018-08-04T22:12:25.215Z,1.7
2018-08-04T22:17:27.440Z,3.2
2018-08-04T22:22:29.677Z,3.8
2018-08-04T22:27:32.227Z,2.8
2018-08-04T22:32:34.315Z,6.6
2018-08-04T22:37:36.546Z,2
2018-08-04T22:42:38.902Z,3.5
2018-08-04T22:47:41.160Z,7.4
2018-08-04T22:52:43.529Z,8.2
2018-08-04T22:57:45.801Z,7.7
2018-08-04T23:02:48.149Z,9.7
2018-08-04T23:07:50.284Z,11.2
2018-08-04T23:12:52.775Z,8.8
2018-08-04T23:17:54.904Z,8.8
2018-08-04T23:22:57.278Z,10.2
2018-08-04T23:27:59.506Z,10.8
2018-08-04T23:33:01.744Z,7.9
2018-08-04T23:38:04.254Z,5
2018-08-04T23:43:06.387Z,7.5
2018-08-04T23:48:08.625Z,7.3
2018-08-04T23:53:10.955Z,6
2018-08-04T23:58:13.343Z,5.6
